Time;durP1;ratioP1;P1;durP2;ratioP2;P2;SDS_P1;SDS_P2;PMS_P1;PMS_P2;Temp;Humidity;BMP_temperature;BMP_pressure;BME280_temperature;BME280_humidity;BME280_pressure;Samples;Min_cycle;Max_cycle;Signal;HPM_P1;HPM_P2
2024/01/20 00:02:23;;;;;;;8.93;6.90;;;11.80;89.30;;;;;;5092931;28;20039;-45
2024/01/20 00:04:49;;;;;;;8.73;6.97;;;11.70;89.00;;;;;;5092686;28;20099;-43
2024/01/20 00:07:14;;;;;;;8.30;6.97;;;11.60;89.10;;;;;;5092699;28;20028;-44
2024/01/20 00:09:40;;;;;;;11.18;6.85;;;11.50;89.30;;;;;;5092633;28;20020;-43
2024/01/20 00:12:06;;;;;;;9.23;6.82;;;11.30;89.40;;;;;;5092678;28;20104;-44
2024/01/20 00:14:31;;;;;;;9.73;7.00;;;11.20;89.70;;;;;;5092491;28;20020;-44
2024/01/20 00:16:57;;;;;;;9.23;6.95;;;11.00;90.30;;;;;;5093342;28;20082;-45
2024/01/20 00:19:23;;;;;;;8.70;6.30;;;11.10;91.00;;;;;;5092396;28;20024;-43
2024/01/20 00:21:48;;;;;;;9.02;6.82;;;11.40;91.00;;;;;;5091219;28;20055;-44
2024/01/20 00:24:14;;;;;;;8.75;7.20;;;11.70;90.10;;;;;;5092331;28;20043;-44
2024/01/20 00:26:39;;;;;;;7.90;6.18;;;11.70;89.30;;;;;;5092252;28;20428;-44
2024/01/20 00:29:06;;;;;;;7.43;6.25;;;11.60;89.00;;;;;;5092207;28;20035;-44
2024/01/20 00:31:31;;;;;;;10.35;6.90;;;11.50;89.10;;;;;;5091277;28;20099;-43
2024/01/20 00:33:57;;;;;;;8.82;7.05;;;11.40;89.40;;;;;;5092115;28;20550;-44
2024/01/20 00:36:23;;;;;;;7.55;6.05;;;11.20;89.60;;;;;;5092182;28;20028;-44
2024/01/20 00:38:48;;;;;;;8.95;7.07;;;11.10;89.90;;;;;;5092153;28;20020;-44
2024/01/20 00:41:14;;;;;;;9.32;6.43;;;10.90;90.70;;;;;;5092195;28;20028;-44
2024/01/20 00:43:40;;;;;;;8.80;7.28;;;11.10;91.10;;;;;;5091980;28;20039;-43
2024/01/20 00:46:05;;;;;;;9.30;6.70;;;11.50;90.70;;;;;;5092250;28;20029;-43
2024/01/20 00:48:31;;;;;;;9.82;6.95;;;11.60;89.90;;;;;;5091975;28;20024;-44
2024/01/20 00:50:57;;;;;;;10.65;7.32;;;11.60;89.20;;;;;;5091967;28;20020;-43
2024/01/20 00:53:22;;;;;;;10.73;6.93;;;11.50;89.10;;;;;;5092133;28;20024;-43
2024/01/20 00:55:48;;;;;;;7.35;6.20;;;11.40;89.30;;;;;;5091811;28;20504;-43
2024/01/20 00:58:13;;;;;;;8.38;5.90;;;11.30;89.60;;;;;;5091656;28;20036;-43
2024/01/20 01:00:39;;;;;;;8.02;6.28;;;11.10;89.80;;;;;;5092051;28;20020;-43
2024/01/20 01:03:05;;;;;;;8.85;6.45;;;11.00;90.00;;;;;;5092015;28;20081;-44
2024/01/20 01:05:30;;;;;;;8.30;6.22;;;10.90;91.00;;;;;;5090338;28;20024;-43
2024/01/20 01:07:56;;;;;;;8.95;6.97;;;11.10;91.10;;;;;;5091729;28;20034;-44
2024/01/20 01:10:22;;;;;;;9.95;7.30;;;11.50;90.50;;;;;;5091706;28;20100;-43
2024/01/20 01:12:49;;;;;;;8.32;6.60;;;11.60;89.90;;;;;;5091852;28;20050;-43
2024/01/20 01:15:14;;;;;;;8.40;6.63;;;11.60;89.30;;;;;;5091626;28;20505;-44
2024/01/20 01:17:40;;;;;;;9.85;6.57;;;11.40;89.20;;;;;;5091548;28;20028;-44
2024/01/20 01:20:06;;;;;;;8.38;6.30;;;11.30;89.40;;;;;;5091741;28;20095;-43
2024/01/20 01:22:32;;;;;;;7.80;6.47;;;11.20;89.60;;;;;;5091980;28;20020;-44
2024/01/20 01:24:58;;;;;;;8.88;6.18;;;11.00;89.90;;;;;;5092542;28;20394;-44
2024/01/20 01:27:23;;;;;;;8.02;6.47;;;10.90;90.40;;;;;;5091699;28;20101;-43
2024/01/20 01:29:49;;;;;;;8.52;6.20;;;10.90;91.10;;;;;;5091349;28;20035;-44
2024/01/20 01:32:14;;;;;;;9.05;6.88;;;11.30;91.10;;;;;;5091374;28;20021;-44
2024/01/20 01:34:40;;;;;;;8.52;6.55;;;11.50;90.20;;;;;;5091265;28;20028;-44
2024/01/20 01:37:05;;;;;;;8.48;6.50;;;11.50;89.40;;;;;;5090588;28;20027;-44
2024/01/20 01:39:31;;;;;;;8.23;6.38;;;11.50;89.00;;;;;;5090941;28;20039;-43
2024/01/20 01:41:57;;;;;;;8.82;6.10;;;11.30;89.10;;;;;;5091668;28;20371;-44
2024/01/20 01:44:22;;;;;;;9.63;6.20;;;11.20;89.30;;;;;;5095421;28;20277;-44
2024/01/20 01:46:48;;;;;;;7.70;5.95;;;11.10;89.50;;;;;;5096049;28;20066;-43
2024/01/20 01:49:14;;;;;;;8.52;6.72;;;11.00;89.80;;;;;;5095381;28;20067;-44
2024/01/20 01:51:39;;;;;;;8.38;6.05;;;10.80;90.60;;;;;;5095410;28;20035;-44
2024/01/20 01:54:08;;;;;;;7.78;6.00;;;11.00;91.00;;;;;;5095369;28;20021;-43
2024/01/20 01:56:34;;;;;;;8.15;6.53;;;11.40;90.50;;;;;;5095290;28;20143;-44
2024/01/20 01:59:00;;;;;;;8.65;6.50;;;11.50;89.80;;;;;;5095067;28;20040;-44
2024/01/20 02:01:25;;;;;;;8.52;6.50;;;11.50;89.10;;;;;;5095233;28;20034;-44
2024/01/20 02:03:51;;;;;;;8.05;5.95;;;11.40;89.00;;;;;;5095152;28;20055;-43
2024/01/20 02:06:17;;;;;;;8.25;5.82;;;11.30;89.20;;;;;;5096389;28;20425;-44
2024/01/20 02:08:43;;;;;;;8.70;6.55;;;11.20;89.40;;;;;;5095597;28;20020;-44
2024/01/20 02:11:09;;;;;;;8.15;6.18;;;11.00;89.70;;;;;;5093963;28;20032;-44
2024/01/20 02:13:35;;;;;;;7.20;6.05;;;10.90;90.10;;;;;;5094893;28;20043;-44
2024/01/20 02:16:01;;;;;;;8.15;6.00;;;10.80;90.90;;;;;;5094990;28;20374;-43
2024/01/20 02:18:27;;;;;;;8.40;6.55;;;11.10;91.10;;;;;;5094771;28;20054;-44
2024/01/20 02:20:53;;;;;;;10.07;7.10;;;11.40;90.20;;;;;;5095239;28;20028;-44
2024/01/20 02:23:19;;;;;;;9.40;6.30;;;11.50;89.40;;;;;;5094744;28;20394;-43
2024/01/20 02:25:46;;;;;;;8.35;6.50;;;11.50;89.10;;;;;;5094573;28;20035;-44
2024/01/20 02:28:11;;;;;;;7.93;6.15;;;11.40;89.10;;;;;;5094488;28;20028;-43
2024/01/20 02:30:37;;;;;;;9.15;6.43;;;11.20;89.20;;;;;;5094679;28;20019;-43
2024/01/20 02:33:03;;;;;;;8.60;6.28;;;11.10;89.50;;;;;;5095048;28;20035;-43
2024/01/20 02:35:29;;;;;;;8.98;6.65;;;10.90;89.90;;;;;;5094790;28;20024;-43
2024/01/20 02:37:55;;;;;;;8.50;5.80;;;10.80;90.70;;;;;;5094471;28;20058;-43
2024/01/20 02:40:20;;;;;;;8.52;6.28;;;10.90;91.10;;;;;;5094212;28;20534;-43
2024/01/20 02:42:46;;;;;;;9.68;6.82;;;11.30;90.60;;;;;;5094431;28;20036;-44
2024/01/20 02:45:11;;;;;;;8.32;6.28;;;11.50;89.90;;;;;;5094736;28;20550;-43
2024/01/20 02:47:37;;;;;;;8.40;6.80;;;11.50;89.10;;;;;;5094339;28;20028;-44
2024/01/20 02:50:03;;;;;;;8.30;6.13;;;11.40;89.00;;;;;;5094272;28;20043;-43
2024/01/20 02:52:29;;;;;;;9.82;6.30;;;11.20;89.10;;;;;;5094347;28;20020;-44
2024/01/20 02:54:55;;;;;;;7.65;6.03;;;11.10;89.40;;;;;;5092902;28;20389;-44
2024/01/20 02:57:20;;;;;;;6.95;5.68;;;11.00;89.80;;;;;;5094163;28;20107;-44
2024/01/20 02:59:46;;;;;;;7.53;5.97;;;10.80;90.00;;;;;;5094101;28;20043;-44
2024/01/20 03:02:11;;;;;;;7.55;5.80;;;10.80;90.90;;;;;;5094280;28;20024;-45
2024/01/20 03:04:37;;;;;;;8.27;6.55;;;11.10;91.00;;;;;;5094162;28;20035;-43
2024/01/20 03:07:03;;;;;;;9.00;6.35;;;11.40;90.20;;;;;;5095035;28;20034;-44
2024/01/20 03:09:28;;;;;;;9.80;6.60;;;11.50;89.20;;;;;;5093769;28;20052;-42
2024/01/20 03:11:54;;;;;;;9.18;7.07;;;11.40;88.90;;;;;;5094316;28;20020;-43
2024/01/20 03:14:20;;;;;;;8.52;6.15;;;11.30;88.80;;;;;;5094162;28;20029;-44
2024/01/20 03:16:45;;;;;;;8.32;6.10;;;11.20;89.00;;;;;;5093670;28;20065;-44
2024/01/20 03:19:11;;;;;;;7.43;6.22;;;11.00;89.20;;;;;;5093731;28;20028;-43
2024/01/20 03:21:37;;;;;;;7.82;6.10;;;10.90;89.50;;;;;;5094135;28;20038;-44
2024/01/20 03:24:03;;;;;;;7.13;5.57;;;10.80;90.50;;;;;;5093398;28;20028;-43
2024/01/20 03:26:28;;;;;;;8.48;6.47;;;10.90;91.00;;;;;;5093461;28;20385;-43
2024/01/20 03:28:54;;;;;;;7.57;6.35;;;11.30;90.50;;;;;;5093446;28;20056;-43
2024/01/20 03:31:19;;;;;;;10.32;6.90;;;11.50;89.60;;;;;;5093564;28;20020;-44
2024/01/20 03:33:45;;;;;;;7.95;6.30;;;11.40;88.90;;;;;;5093459;28;20262;-41
2024/01/20 03:36:11;;;;;;;8.27;6.35;;;11.30;88.80;;;;;;5093419;28;20024;-43
2024/01/20 03:38:37;;;;;;;7.10;5.70;;;11.20;88.90;;;;;;5093194;28;20398;-43
2024/01/20 03:41:03;;;;;;;7.90;6.20;;;11.10;89.20;;;;;;5094025;28;20076;-44
2024/01/20 03:43:28;;;;;;;8.15;6.63;;;10.90;89.50;;;;;;5093251;28;20020;-44
2024/01/20 03:45:55;;;;;;;9.70;6.38;;;10.80;90.10;;;;;;5093136;28;20500;-43
2024/01/20 03:48:20;;;;;;;7.70;5.90;;;10.80;90.90;;;;;;5093072;28;20076;-44
2024/01/20 03:50:46;;;;;;;9.10;6.53;;;11.10;91.00;;;;;;5093206;28;20051;-43
2024/01/20 03:53:12;;;;;;;8.52;6.63;;;11.40;90.10;;;;;;5093177;28;20016;-44
2024/01/20 03:55:37;;;;;;;7.35;5.95;;;11.40;89.30;;;;;;5093053;28;20030;-44
2024/01/20 03:58:03;;;;;;;7.95;6.07;;;11.40;88.90;;;;;;5093066;28;20028;-44
2024/01/20 04:00:29;;;;;;;7.60;6.03;;;11.20;88.80;;;;;;5092834;28;20020;-44
2024/01/20 04:02:55;;;;;;;7.45;6.07;;;11.10;89.10;;;;;;5092851;28;20024;-44
2024/01/20 04:05:21;;;;;;;7.40;5.78;;;11.00;89.50;;;;;;5092545;28;20036;-43
2024/01/20 04:07:47;;;;;;;8.52;6.43;;;10.80;89.80;;;;;;5093109;28;20097;-44
2024/01/20 04:10:12;;;;;;;8.88;6.50;;;10.70;90.70;;;;;;5093400;28;20022;-44
2024/01/20 04:12:39;;;;;;;8.88;6.43;;;10.90;91.00;;;;;;5093313;28;20046;-44
2024/01/20 04:15:05;;;;;;;7.95;6.80;;;11.30;90.50;;;;;;5092957;28;20451;-44
2024/01/20 04:17:31;;;;;;;7.85;6.30;;;11.40;89.50;;;;;;5092606;28;20055;-43
2024/01/20 04:19:56;;;;;;;8.30;6.05;;;11.40;88.90;;;;;;5092592;28;20074;-44
2024/01/20 04:22:22;;;;;;;7.90;6.05;;;11.30;88.90;;;;;;5092543;28;20617;-43
2024/01/20 04:24:48;;;;;;;7.65;5.95;;;11.20;89.00;;;;;;5092375;28;20035;-44
2024/01/20 04:27:13;;;;;;;8.20;6.47;;;11.00;89.30;;;;;;5092312;28;20119;-43
2024/01/20 04:29:39;;;;;;;8.48;6.65;;;10.90;89.50;;;;;;5092263;28;20032;-44
2024/01/20 04:32:05;;;;;;;9.00;6.10;;;10.80;90.30;;;;;;5092330;28;20179;-44
2024/01/20 04:34:30;;;;;;;8.57;6.55;;;10.80;90.90;;;;;;5092204;28;20024;-44
2024/01/20 04:36:56;;;;;;;8.73;7.13;;;11.10;90.80;;;;;;5092353;28;20058;-43
2024/01/20 04:39:22;;;;;;;7.97;6.38;;;11.40;89.90;;;;;;5092129;28;20098;-44
2024/01/20 04:41:47;;;;;;;9.57;7.00;;;11.40;89.00;;;;;;5092600;28;20012;-44
2024/01/20 04:44:13;;;;;;;9.55;7.10;;;11.30;88.80;;;;;;5092958;28;20028;-43
2024/01/20 04:46:38;;;;;;;9.80;6.13;;;11.20;88.80;;;;;;5092460;28;20032;-43
2024/01/20 04:49:04;;;;;;;8.02;6.15;;;11.00;89.10;;;;;;5091956;28;20059;-44
2024/01/20 04:51:30;;;;;;;7.53;5.85;;;10.90;89.40;;;;;;5091981;28;20034;-44
2024/01/20 04:53:55;;;;;;;7.68;6.45;;;10.80;89.70;;;;;;5092180;28;20024;-44
2024/01/20 04:56:22;;;;;;;8.35;6.03;;;10.70;90.70;;;;;;5091844;28;20081;-44
2024/01/20 04:58:49;;;;;;;9.38;7.03;;;10.90;91.00;;;;;;5092045;28;20427;-43
2024/01/20 05:01:15;;;;;;;9.95;6.82;;;11.30;90.20;;;;;;5092363;28;20030;-44
2024/01/20 05:03:40;;;;;;;8.05;6.55;;;11.40;89.30;;;;;;5091858;28;20525;-44
2024/01/20 05:06:06;;;;;;;7.75;6.57;;;11.40;88.80;;;;;;5092529;28;20031;-44
2024/01/20 05:08:32;;;;;;;7.32;5.85;;;11.30;88.80;;;;;;5091977;28;20103;-44
2024/01/20 05:10:57;;;;;;;7.35;6.35;;;11.10;88.90;;;;;;5092617;28;20039;-43
2024/01/20 05:13:23;;;;;;;8.57;6.28;;;11.00;89.20;;;;;;5092249;28;20028;-44
2024/01/20 05:15:49;;;;;;;8.90;6.72;;;10.80;89.60;;;;;;5092037;28;20555;-43
2024/01/20 05:18:14;;;;;;;7.88;5.85;;;10.70;90.40;;;;;;5090866;28;20104;-44
2024/01/20 05:20:40;;;;;;;7.60;6.80;;;10.80;90.90;;;;;;5091463;28;20036;-44
2024/01/20 05:23:05;;;;;;;9.63;6.75;;;11.10;90.60;;;;;;5091496;28;20028;-44
2024/01/20 05:25:31;;;;;;;8.75;6.90;;;11.40;89.60;;;;;;5091352;28;20123;-44
2024/01/20 05:27:57;;;;;;;10.05;7.20;;;11.30;88.80;;;;;;5091370;28;20052;-43
2024/01/20 05:30:23;;;;;;;8.75;7.07;;;11.30;88.60;;;;;;5091362;28;20020;-43
2024/01/20 05:32:49;;;;;;;8.55;6.47;;;11.10;88.70;;;;;;5091358;28;20016;-44
2024/01/20 05:35:15;;;;;;;8.40;6.55;;;11.00;88.90;;;;;;5091243;28;20049;-45
2024/01/20 05:37:40;;;;;;;9.02;6.65;;;10.90;89.20;;;;;;5091953;28;20379;-45
2024/01/20 05:40:07;;;;;;;9.20;6.82;;;10.70;89.80;;;;;;5091264;28;20040;-44
2024/01/20 05:42:33;;;;;;;8.77;6.25;;;10.70;90.70;;;;;;5091230;28;20381;-43
2024/01/20 05:44:58;;;;;;;9.70;7.28;;;11.00;90.80;;;;;;5091305;28;20474;-44
2024/01/20 05:47:24;;;;;;;9.25;7.05;;;11.30;89.90;;;;;;5091133;28;20024;-44
2024/01/20 05:49:50;;;;;;;8.43;6.30;;;11.40;88.80;;;;;;5091049;28;20042;-43
2024/01/20 05:52:15;;;;;;;10.80;7.47;;;11.30;88.50;;;;;;5091489;28;20052;-43
2024/01/20 05:54:41;;;;;;;9.18;6.90;;;11.20;88.40;;;;;;5091190;28;20032;-44
2024/01/20 05:57:08;;;;;;;8.93;6.68;;;11.00;88.70;;;;;;5091462;28;20101;-44
2024/01/20 05:59:34;;;;;;;7.32;6.18;;;10.90;89.00;;;;;;5091109;28;20051;-44
2024/01/20 06:02:00;;;;;;;9.82;6.93;;;10.70;89.30;;;;;;5091135;28;20048;-43
2024/01/20 06:04:26;;;;;;;9.65;6.63;;;10.60;90.50;;;;;;5090828;28;20471;-43
2024/01/20 06:06:51;;;;;;;7.57;6.60;;;10.80;90.80;;;;;;5090936;28;20112;-43
2024/01/20 06:09:17;;;;;;;9.75;7.35;;;11.20;90.10;;;;;;5090970;28;20359;-44
2024/01/20 06:11:42;;;;;;;10.55;7.55;;;11.30;88.90;;;;;;5090134;28;20371;-44
2024/01/20 06:14:08;;;;;;;9.68;6.88;;;11.30;88.50;;;;;;5091699;28;20397;-44
2024/01/20 06:16:36;;;;;;;8.60;6.90;;;11.20;88.30;;;;;;5091433;28;20095;-44
2024/01/20 06:19:02;;;;;;;9.05;6.88;;;11.00;88.40;;;;;;5090708;28;20067;-44
2024/01/20 06:21:27;;;;;;;9.02;6.88;;;10.90;88.70;;;;;;5090985;28;20051;-44
2024/01/20 06:23:53;;;;;;;10.52;7.55;;;10.80;89.00;;;;;;5091555;28;20040;-44
2024/01/20 06:26:19;;;;;;;11.23;7.20;;;10.60;90.30;;;;;;5090743;28;20438;-43
2024/01/20 06:28:44;;;;;;;9.00;7.13;;;10.80;90.70;;;;;;5092321;28;20028;-44
2024/01/20 06:31:23;;;;;;;9.50;7.63;;;11.20;90.20;;;;;;5094780;28;20072;-43
2024/01/20 06:33:49;;;;;;;10.13;7.07;;;11.30;88.90;;;;;;5094904;28;20085;-43
2024/01/20 06:36:14;;;;;;;9.57;7.63;;;11.30;88.30;;;;;;5094554;28;20036;-44
2024/01/20 06:38:40;;;;;;;9.73;7.20;;;11.20;88.20;;;;;;5094511;28;20460;-44
2024/01/20 06:41:06;;;;;;;8.85;7.43;;;11.00;88.30;;;;;;5094488;28;20087;-44
2024/01/20 06:43:32;;;;;;;8.43;7.30;;;10.90;88.50;;;;;;5094411;28;20032;-44
2024/01/20 06:46:00;;;;;;;9.88;7.63;;;10.80;89.60;;;;;;5094519;28;20475;-43
2024/01/20 06:48:26;;;;;;;10.48;7.32;;;10.60;90.10;;;;;;5094506;28;20023;-45
2024/01/20 06:50:52;;;;;;;9.60;7.40;;;10.70;90.60;;;;;;5094353;28;20050;-44
2024/01/20 06:53:17;;;;;;;9.05;7.38;;;11.00;90.30;;;;;;5095442;28;20040;-44
2024/01/20 06:55:43;;;;;;;12.95;8.35;;;11.30;89.00;;;;;;5094420;28;20028;-43
2024/01/20 06:58:09;;;;;;;10.13;7.75;;;11.30;88.20;;;;;;5094586;28;20093;-43
2024/01/20 07:00:34;;;;;;;10.88;7.78;;;11.20;88.00;;;;;;5094081;28;20016;-44
2024/01/20 07:03:00;;;;;;;8.75;7.22;;;11.00;88.40;;;;;;5094560;28;20643;-43
2024/01/20 07:05:26;;;;;;;8.18;6.55;;;10.90;88.50;;;;;;5094505;28;20068;-43
2024/01/20 07:07:51;;;;;;;10.02;7.20;;;10.70;88.80;;;;;;5092618;28;20047;-44
2024/01/20 07:10:17;;;;;;;8.48;7.40;;;10.60;90.00;;;;;;5093912;28;20025;-44
2024/01/20 07:12:42;;;;;;;8.90;6.90;;;10.60;90.60;;;;;;5094109;28;20016;-44
2024/01/20 07:15:08;;;;;;;9.35;7.60;;;11.00;90.50;;;;;;5094572;28;20028;-44
2024/01/20 07:17:34;;;;;;;10.77;8.15;;;11.30;89.30;;;;;;5094326;28;20516;-44
2024/01/20 07:20:00;;;;;;;12.43;8.15;;;11.30;88.30;;;;;;5093684;28;20054;-45
2024/01/20 07:22:26;;;;;;;9.45;7.15;;;11.20;88.00;;;;;;5093783;28;20024;-44
2024/01/20 07:24:52;;;;;;;8.57;6.82;;;11.10;88.10;;;;;;5093417;28;20126;-43
2024/01/20 07:27:18;;;;;;;9.18;7.25;;;11.00;88.40;;;;;;5093488;28;20036;-43
2024/01/20 07:29:43;;;;;;;8.65;6.97;;;10.90;88.70;;;;;;5093753;28;20103;-44
2024/01/20 07:32:09;;;;;;;9.55;7.53;;;10.80;89.10;;;;;;5094065;28;20126;-44
2024/01/20 07:34:34;;;;;;;9.20;6.95;;;10.80;90.40;;;;;;5093421;28;20028;-44
2024/01/20 07:37:00;;;;;;;9.30;7.32;;;11.10;90.50;;;;;;5093763;28;20024;-43
2024/01/20 07:39:26;;;;;;;9.88;7.55;;;11.50;89.10;;;;;;5093460;28;20482;-44
2024/01/20 07:41:51;;;;;;;9.13;7.43;;;11.60;87.80;;;;;;5092942;28;20111;-44
2024/01/20 07:44:18;;;;;;;8.95;7.28;;;11.60;87.40;;;;;;5093114;28;20115;-44
2024/01/20 07:46:44;;;;;;;10.20;7.03;;;11.60;87.40;;;;;;5093121;28;20099;-44
2024/01/20 07:49:09;;;;;;;9.02;5.93;;;11.60;87.70;;;;;;5091739;28;20107;-43
2024/01/20 07:51:35;;;;;;;9.18;6.47;;;11.50;87.80;;;;;;5093137;28;20032;-43
2024/01/20 07:54:00;;;;;;;11.23;8.00;;;11.50;88.00;;;;;;5093085;28;20026;-44
2024/01/20 07:56:27;;;;;;;7.60;6.60;;;11.50;88.50;;;;;;5092952;28;20050;-44
2024/01/20 07:58:53;;;;;;;9.00;7.43;;;11.60;88.90;;;;;;5093303;28;20032;-44
2024/01/20 08:01:18;;;;;;;10.68;7.72;;;12.00;88.00;;;;;;5093256;28;20028;-44
2024/01/20 08:03:44;;;;;;;9.23;7.10;;;12.30;86.20;;;;;;5093130;28;20560;-44
2024/01/20 08:06:10;;;;;;;7.22;6.22;;;12.30;85.60;;;;;;5092788;28;20471;-43
2024/01/20 08:08:36;;;;;;;7.95;6.32;;;12.30;85.50;;;;;;5092781;28;20046;-43
2024/01/20 08:11:01;;;;;;;8.35;6.18;;;12.30;85.60;;;;;;5092797;28;20024;-43
2024/01/20 08:13:27;;;;;;;9.25;6.30;;;12.30;85.60;;;;;;5092541;28;20043;-43
2024/01/20 08:15:52;;;;;;;7.72;6.00;;;12.30;85.60;;;;;;5092643;28;20103;-43
2024/01/20 08:18:18;;;;;;;7.70;5.85;;;12.30;85.60;;;;;;5092520;28;20032;-45
2024/01/20 08:20:44;;;;;;;8.20;6.28;;;12.30;85.50;;;;;;5092578;28;20035;-44
2024/01/20 08:23:09;;;;;;;7.38;5.80;;;12.30;85.50;;;;;;5093124;28;20030;-44
2024/01/20 08:25:35;;;;;;;8.65;6.80;;;12.30;85.50;;;;;;5093040;28;20059;-44
2024/01/20 08:28:01;;;;;;;7.75;6.32;;;12.30;86.30;;;;;;5092197;28;20032;-45
2024/01/20 08:30:26;;;;;;;8.23;6.50;;;12.40;86.70;;;;;;5092719;28;20032;-43
2024/01/20 08:32:52;;;;;;;8.90;7.00;;;12.80;85.90;;;;;;5092343;28;20094;-44
2024/01/20 08:35:18;;;;;;;9.40;6.93;;;13.20;83.90;;;;;;5092493;28;20078;-43
2024/01/20 08:37:43;;;;;;;7.57;6.35;;;13.30;83.00;;;;;;5092224;28;20024;-44
2024/01/20 08:40:09;;;;;;;9.45;6.45;;;13.20;82.80;;;;;;5092244;28;20031;-44
2024/01/20 08:42:34;;;;;;;7.80;6.03;;;13.20;82.90;;;;;;5092160;28;20077;-44
2024/01/20 08:45:00;;;;;;;9.40;6.03;;;13.20;82.90;;;;;;5092222;28;20070;-45
2024/01/20 08:47:27;;;;;;;7.22;5.88;;;13.20;82.90;;;;;;5092028;28;20078;-44
2024/01/20 08:49:52;;;;;;;7.05;5.55;;;13.20;83.00;;;;;;5091993;28;20387;-44
2024/01/20 08:52:18;;;;;;;9.23;7.13;;;13.10;83.00;;;;;;5091586;28;20023;-44
2024/01/20 08:54:44;;;;;;;7.90;6.10;;;13.00;83.80;;;;;;5091899;28;20024;-44
2024/01/20 08:57:09;;;;;;;10.70;8.18;;;13.30;84.30;;;;;;5092332;28;20024;-44
2024/01/20 08:59:35;;;;;;;9.32;7.07;;;13.60;82.80;;;;;;5091755;28;20036;-43
2024/01/20 09:02:01;;;;;;;8.07;6.40;;;13.60;82.00;;;;;;5092141;28;20028;-43
2024/01/20 09:04:26;;;;;;;7.70;6.20;;;13.60;81.90;;;;;;5091769;28;20024;-43
2024/01/20 09:06:52;;;;;;;8.20;6.53;;;13.50;82.00;;;;;;5091596;28;20035;-43
2024/01/20 09:09:18;;;;;;;6.80;5.57;;;13.50;82.00;;;;;;5091957;28;20024;-45
2024/01/20 09:11:44;;;;;;;7.85;6.40;;;13.50;82.10;;;;;;5091662;28;20029;-43
2024/01/20 09:14:09;;;;;;;9.02;6.68;;;13.50;82.10;;;;;;5091889;28;20020;-43
2024/01/20 09:16:35;;;;;;;9.38;7.40;;;13.40;82.70;;;;;;5091609;28;20024;-44
2024/01/20 09:19:01;;;;;;;9.57;6.97;;;13.40;83.30;;;;;;5091495;28;20410;-43
2024/01/20 09:21:26;;;;;;;8.93;7.40;;;13.60;83.00;;;;;;5091560;28;20032;-43
2024/01/20 09:23:52;;;;;;;8.45;6.80;;;13.80;81.40;;;;;;5091329;28;20081;-43
2024/01/20 09:26:17;;;;;;;8.18;6.78;;;13.80;80.90;;;;;;5091352;28;20030;-43
2024/01/20 09:28:43;;;;;;;7.15;6.03;;;13.70;81.00;;;;;;5091881;28;20027;-44
2024/01/20 09:31:09;;;;;;;8.98;6.20;;;13.70;81.10;;;;;;5091879;28;20034;-44
2024/01/20 09:33:34;;;;;;;6.50;5.78;;;13.70;81.20;;;;;;5091982;28;20032;-44
2024/01/20 09:36:02;;;;;;;6.43;5.22;;;13.70;81.30;;;;;;5092084;28;20051;-43
2024/01/20 09:38:28;;;;;;;9.02;7.10;;;13.70;81.30;;;;;;5091209;28;20020;-44
2024/01/20 09:40:55;;;;;;;8.27;6.50;;;13.60;82.10;;;;;;5091537;28;20376;-43
2024/01/20 09:43:21;;;;;;;9.15;6.85;;;13.70;82.70;;;;;;5090049;28;20036;-43
2024/01/20 09:45:47;;;;;;;8.23;6.60;;;14.00;81.80;;;;;;5091212;28;20024;-44
2024/01/20 09:48:12;;;;;;;9.27;6.78;;;14.00;80.70;;;;;;5091095;28;20024;-43
2024/01/20 09:50:38;;;;;;;6.82;5.80;;;14.00;80.50;;;;;;5091286;28;20028;-45
2024/01/20 09:53:16;;;;;;;8.38;6.03;;;14.00;80.60;;;;;;5091530;28;20032;-44
2024/01/20 09:55:43;;;;;;;8.23;5.57;;;14.00;80.70;;;;;;5091405;28;20032;-44
2024/01/20 09:58:12;;;;;;;7.85;5.72;;;14.00;80.80;;;;;;5091013;28;20392;-43
2024/01/20 10:00:38;;;;;;;6.70;6.00;;;13.90;80.80;;;;;;5091219;28;20440;-44
2024/01/20 10:03:07;;;;;;;7.88;6.75;;;13.90;81.20;;;;;;5091502;28;20113;-45
2024/01/20 10:05:33;;;;;;;9.52;7.00;;;13.80;81.80;;;;;;5095069;28;20046;-44
2024/01/20 10:07:59;;;;;;;8.75;7.15;;;14.10;81.90;;;;;;5094997;28;20039;-44
2024/01/20 10:10:25;;;;;;;8.07;6.63;;;14.30;80.50;;;;;;5094997;28;20016;-45
2024/01/20 10:12:53;;;;;;;8.90;7.03;;;14.30;80.10;;;;;;5095275;28;20105;-44
2024/01/20 10:15:26;;;;;;;7.43;6.47;;;14.20;80.20;;;;;;5095076;28;20040;-44
2024/01/20 10:17:52;;;;;;;7.50;5.90;;;14.20;80.20;;;;;;5095208;28;20417;-44
2024/01/20 10:20:26;;;;;;;9.40;5.95;;;14.20;80.20;;;;;;5095314;28;20066;-45
2024/01/20 10:22:52;;;;;;;6.40;5.20;;;14.20;80.30;;;;;;5094804;28;20028;-43
2024/01/20 10:25:21;;;;;;;9.25;7.07;;;14.20;80.40;;;;;;5095050;28;20059;-43
2024/01/20 10:27:48;;;;;;;10.68;6.82;;;14.10;81.00;;;;;;5094743;28;20028;-44
2024/01/20 10:30:18;;;;;;;10.63;7.78;;;14.10;81.60;;;;;;5094716;28;20051;-44
2024/01/20 10:32:44;;;;;;;11.52;7.97;;;14.50;80.90;;;;;;5094966;28;20020;-43
2024/01/20 10:35:10;;;;;;;8.48;6.70;;;14.50;79.90;;;;;;5094505;28;20069;-44
2024/01/20 10:37:50;;;;;;;9.57;7.10;;;14.50;79.80;;;;;;5094508;28;20028;-44
2024/01/20 10:40:16;;;;;;;7.53;6.30;;;14.50;80.00;;;;;;5094515;28;20405;-45
2024/01/20 10:42:46;;;;;;;8.98;6.35;;;14.50;80.00;;;;;;5094704;28;20020;-44
2024/01/20 10:45:19;;;;;;;7.72;6.13;;;14.50;80.00;;;;;;5094939;28;20027;-44
2024/01/20 10:47:49;;;;;;;7.18;5.95;;;14.50;80.00;;;;;;5094196;28;20085;-45
2024/01/20 10:50:16;;;;;;;9.57;6.75;;;14.50;80.00;;;;;;5095108;28;20016;-44
2024/01/20 10:52:42;;;;;;;20.23;14.80;;;14.50;80.50;;;;;;5094256;28;20030;-44
2024/01/20 10:55:09;;;;;;;22.35;15.48;;;14.50;74.20;;;;;;5094432;28;20016;-43
2024/01/20 10:57:35;;;;;;;17.33;13.73;;;14.60;74.50;;;;;;5094210;28;20016;-43
2024/01/20 11:00:01;;;;;;;16.73;13.75;;;14.80;74.50;;;;;;5094113;28;20046;-44
2024/01/20 11:02:27;;;;;;;16.08;12.85;;;14.80;75.10;;;;;;5094037;28;20028;-44
2024/01/20 11:04:53;;;;;;;15.13;11.43;;;14.70;75.70;;;;;;5094296;28;20068;-44
2024/01/20 11:07:23;;;;;;;13.88;10.95;;;14.80;76.10;;;;;;5093943;28;20103;-44
2024/01/20 11:09:58;;;;;;;13.65;10.50;;;14.90;77.20;;;;;;5093884;28;20016;-44
2024/01/20 11:12:29;;;;;;;12.13;9.75;;;14.90;76.70;;;;;;5093941;28;20032;-44
2024/01/20 11:14:57;;;;;;;13.35;10.02;;;15.00;76.90;;;;;;5093479;28;20072;-43
2024/01/20 11:17:23;;;;;;;11.10;9.10;;;15.00;77.10;;;;;;5094952;28;20038;-44
2024/01/20 11:19:52;;;;;;;19.02;13.00;;;15.10;77.20;;;;;;5094312;28;20028;-43
2024/01/20 11:22:39;;;;;;;14.10;11.50;;;15.00;77.90;;;;;;5093768;28;20533;-44
2024/01/20 11:25:07;;;;;;;16.08;12.00;;;15.20;78.10;;;;;;5093582;28;20040;-44
2024/01/20 11:27:50;;;;;;;14.07;11.05;;;15.30;77.10;;;;;;5093563;28;20032;-44
2024/01/20 11:30:35;;;;;;;12.60;10.05;;;15.40;77.00;;;;;;5093666;28;20424;-44
2024/01/20 11:33:01;;;;;;;12.07;9.57;;;15.50;77.00;;;;;;5094367;28;20047;-43
2024/01/20 11:35:27;;;;;;;11.13;9.10;;;15.60;77.00;;;;;;5094170;28;20016;-44
2024/01/20 11:37:55;;;;;;;11.35;8.77;;;15.60;77.00;;;;;;5093236;28;20024;-42
2024/01/20 11:40:21;;;;;;;12.73;8.55;;;15.70;77.70;;;;;;5094486;28;20032;-43
2024/01/20 11:42:47;;;;;;;9.60;7.68;;;15.80;76.90;;;;;;5093337;28;20016;-44
2024/01/20 11:45:13;;;;;;;9.93;8.05;;;15.80;76.80;;;;;;5094134;28;20102;-44
2024/01/20 11:47:39;;;;;;;12.50;9.95;;;15.90;76.80;;;;;;5092241;28;20057;-43
2024/01/20 11:50:06;;;;;;;10.85;8.95;;;15.70;77.30;;;;;;5093601;28;20020;-44
2024/01/20 11:52:32;;;;;;;14.35;9.23;;;15.90;77.40;;;;;;5093117;28;20032;-44
2024/01/20 11:54:57;;;;;;;12.43;8.80;;;16.00;76.30;;;;;;5093334;28;20066;-44
2024/01/20 11:57:26;;;;;;;10.70;8.13;;;16.10;76.20;;;;;;5094136;28;20417;-44
2024/01/20 11:59:54;;;;;;;10.57;7.97;;;16.10;76.20;;;;;;5093809;28;20032;-43
2024/01/20 12:02:21;;;;;;;9.50;7.30;;;16.20;76.10;;;;;;5093950;28;20028;-44
2024/01/20 12:04:46;;;;;;;9.80;6.95;;;16.30;76.00;;;;;;5094156;28;20035;-44
2024/01/20 12:07:12;;;;;;;8.27;6.57;;;16.30;75.90;;;;;;5093290;28;20032;-44
2024/01/20 12:09:43;;;;;;;9.43;6.35;;;16.40;75.70;;;;;;5093225;28;20081;-44
2024/01/20 12:12:09;;;;;;;9.90;6.78;;;16.50;75.50;;;;;;5092881;28;20107;-44
2024/01/20 12:14:35;;;;;;;10.50;8.40;;;16.50;75.40;;;;;;5092726;28;20103;-44
2024/01/20 12:17:00;;;;;;;10.23;7.65;;;16.40;76.40;;;;;;5092748;28;20024;-44
2024/01/20 12:19:26;;;;;;;10.27;7.93;;;16.40;76.10;;;;;;5092375;28;20500;-44
2024/01/20 12:21:52;;;;;;;10.05;7.63;;;16.60;76.00;;;;;;5093139;28;20036;-44
2024/01/20 12:24:18;;;;;;;9.55;7.30;;;16.60;74.90;;;;;;5092898;28;20486;-44
2024/01/20 12:26:43;;;;;;;8.80;6.20;;;16.60;74.90;;;;;;5092323;28;20028;-44
2024/01/20 12:29:09;;;;;;;9.98;6.40;;;16.70;74.70;;;;;;5092550;28;20439;-44
2024/01/20 12:31:35;;;;;;;9.10;6.20;;;16.70;74.60;;;;;;5092452;28;20503;-44
2024/01/20 12:34:01;;;;;;;9.38;6.18;;;16.80;74.50;;;;;;5092216;28;20016;-43
2024/01/20 12:36:27;;;;;;;8.23;6.10;;;16.80;74.30;;;;;;5093211;28;20055;-43
2024/01/20 12:38:53;;;;;;;8.23;5.82;;;16.90;74.20;;;;;;5092221;28;20024;-44
2024/01/20 12:41:19;;;;;;;7.95;5.95;;;16.90;74.10;;;;;;5092422;28;20032;-44